Time;durP1;ratioP1;P1;durP2;ratioP2;P2;SDS_P1;SDS_P2;PMS_P1;PMS_P2;Temp;Humidity;BMP_temperature;BMP_pressure;BME280_temperature;BME280_humidity;BME280_pressure;Samples;Min_cycle;Max_cycle;Signal;HPM_P1;HPM_P2
2023/08/07 00:01:31;;;;;;;5.47;3.73;;;;;;;14.56;100.00;99707.53;5039400;28;20460;-77
2023/08/07 00:04:00;;;;;;;3.83;3.10;;;;;;;14.59;100.00;99705.13;5042036;28;20493;-77
2023/08/07 00:07:07;;;;;;;6.40;3.97;;;;;;;14.44;100.00;99712.28;5048049;28;20438;-78
2023/08/07 00:09:50;;;;;;;9.23;3.70;;;;;;;14.46;100.00;99701.97;5039846;28;20432;-78
2023/08/07 00:17:55;;;;;;;9.10;4.83;;;;;;;14.49;100.00;99715.06;5004446;28;20461;-78
2023/08/07 00:20:26;;;;;;;8.20;6.10;;;;;;;14.46;100.00;99707.44;5010153;28;20446;-78
2023/08/07 00:22:55;;;;;;;8.07;5.47;;;;;;;14.55;100.00;99716.78;5044905;28;20433;-78
2023/08/07 00:25:25;;;;;;;10.10;5.17;;;;;;;14.55;100.00;99708.59;5062951;28;20567;-79
2023/08/07 00:27:54;;;;;;;6.33;4.87;;;;;;;14.49;100.00;99704.19;5049487;28;20436;-78
2023/08/07 00:30:23;;;;;;;5.80;4.47;;;;;;;14.50;100.00;99697.66;5037082;28;20399;-77
2023/08/07 00:32:52;;;;;;;5.07;4.30;;;;;;;14.54;100.00;99707.78;5038381;28;20460;-78
2023/08/07 00:35:22;;;;;;;6.80;5.03;;;;;;;14.66;100.00;99694.03;5046329;28;20463;-78
2023/08/07 00:37:52;;;;;;;5.70;4.20;;;;;;;14.72;100.00;99698.41;5031299;28;20456;-78
2023/08/07 00:40:23;;;;;;;6.10;4.43;;;;;;;14.69;100.00;99688.88;5031985;28;20475;-78
2023/08/07 00:42:52;;;;;;;6.93;5.13;;;;;;;14.79;100.00;99693.59;5033081;28;20993;-78
2023/08/07 00:45:22;;;;;;;6.27;5.00;;;;;;;14.78;100.00;99691.94;5031469;28;20850;-77
2023/08/07 00:47:51;;;;;;;5.20;4.30;;;;;;;14.75;100.00;99693.31;5022797;28;20468;-77
2023/08/07 00:50:20;;;;;;;5.23;4.33;;;;;;;14.72;100.00;99698.41;5031104;28;20632;-78
2023/08/07 00:52:55;;;;;;;5.00;4.20;;;;;;;14.74;100.00;99691.66;5034902;28;20801;-79
2023/08/07 00:55:24;;;;;;;6.20;4.20;;;;;;;14.68;100.00;99691.84;5041753;28;20426;-79
2023/08/07 00:57:54;;;;;;;7.80;4.50;;;;;;;14.71;100.00;99689.44;5044967;28;20934;-78
2023/08/07 01:00:24;;;;;;;6.13;5.03;;;;;;;14.72;100.00;99693.78;5048567;28;20499;-77
2023/08/07 01:02:55;;;;;;;8.60;4.47;;;;;;;14.68;100.00;99687.22;5051364;28;20443;-78
2023/08/07 01:05:26;;;;;;;5.27;4.67;;;;;;;14.74;100.00;99690.81;5052398;28;20415;-78
2023/08/07 01:07:57;;;;;;;5.13;4.07;;;;;;;14.79;100.00;99696.31;5053485;28;20432;-78
2023/08/07 01:10:36;;;;;;;5.43;4.70;;;;;;;14.75;100.00;99692.47;5045018;28;20395;-78
2023/08/07 01:13:25;;;;;;;6.90;4.10;;;;;;;14.77;100.00;99685.66;5056920;28;20418;-78
2023/08/07 01:15:58;;;;;;;6.27;4.80;;;;;;;14.77;100.00;99687.56;5037174;28;20437;-77
2023/08/07 01:18:28;;;;;;;5.37;4.83;;;;;;;14.67;100.00;99685.56;5052273;28;20422;-78
2023/08/07 01:20:57;;;;;;;9.43;5.40;;;;;;;14.72;100.00;99690.25;5046972;28;20945;-78
2023/08/07 01:23:29;;;;;;;5.37;4.83;;;;;;;14.76;100.00;99681.31;5032145;28;20472;-79
2023/08/07 01:25:58;;;;;;;9.90;4.43;;;;;;;14.72;100.00;99671.19;5034132;28;20470;-79
2023/08/07 01:28:40;;;;;;;12.30;5.03;;;;;;;14.75;100.00;99670.69;5030872;28;20442;-78
2023/08/07 01:31:15;;;;;;;4.80;3.57;;;;;;;14.73;100.00;99672.84;5039367;28;20426;-78
2023/08/07 01:33:52;;;;;;;4.33;3.93;;;;;;;14.73;100.00;99661.94;5032910;28;20425;-79
2023/08/07 01:36:22;;;;;;;5.50;4.87;;;;;;;14.71;100.00;99659.50;5036149;28;20467;-78
2023/08/07 01:38:54;;;;;;;6.33;4.13;;;;;;;14.69;100.00;99658.09;5038811;28;20395;-77
2023/08/07 01:41:23;;;;;;;5.50;4.50;;;;;;;14.68;100.00;99653.72;5028074;28;20452;-77
2023/08/07 01:43:52;;;;;;;5.50;4.43;;;;;;;14.63;100.00;99650.97;5045619;28;20411;-77
2023/08/07 01:46:22;;;;;;;6.73;4.17;;;;;;;14.63;100.00;99650.97;5051276;28;20440;-77
2023/08/07 01:48:52;;;;;;;7.23;3.87;;;;;;;14.58;100.00;99653.63;5048855;28;20411;-77
2023/08/07 01:51:21;;;;;;;7.50;4.50;;;;;;;14.51;100.00;99650.31;5044005;28;20459;-77
2023/08/07 01:53:52;;;;;;;5.77;5.20;;;;;;;14.41;100.00;99655.66;5051446;28;20808;-78
2023/08/07 01:56:22;;;;;;;7.00;4.63;;;;;;;14.35;100.00;99650.13;5042210;28;20431;-78
2023/08/07 01:58:51;;;;;;;8.50;5.23;;;;;;;14.41;100.00;99655.66;5051152;28;20407;-78
2023/08/07 02:01:20;;;;;;;9.20;4.33;;;;;;;14.38;100.00;99658.91;5051342;28;20456;-78
2023/08/07 02:03:49;;;;;;;7.77;5.93;;;;;;;14.28;100.00;99654.94;5050624;28;20447;-78
2023/08/07 02:06:20;;;;;;;12.20;5.00;;;;;;;14.40;100.00;99656.72;5049459;28;20494;-78
2023/08/07 02:08:49;;;;;;;11.73;5.27;;;;;;;14.40;100.00;99654.00;5050011;28;20440;-78
2023/08/07 02:11:19;;;;;;;7.27;5.83;;;;;;;14.34;100.00;99656.66;5053577;28;20482;-77
2023/08/07 02:13:49;;;;;;;6.00;4.93;;;;;;;14.34;100.00;99655.81;5039796;28;20426;-78
2023/08/07 02:16:18;;;;;;;10.40;5.23;;;;;;;14.33;100.00;99655.00;5050652;28;20434;-78
2023/08/07 02:18:48;;;;;;;6.53;5.80;;;;;;;14.45;100.00;99665.78;5057926;28;20387;-78
2023/08/07 02:21:17;;;;;;;7.90;5.33;;;;;;;14.48;100.00;99670.69;5054629;28;20457;-78
2023/08/07 02:23:46;;;;;;;6.23;4.80;;;;;;;14.57;100.00;99673.78;5055373;28;20442;-78
2023/08/07 02:26:16;;;;;;;9.53;5.97;;;;;;;14.54;100.00;99669.66;5057862;28;20415;-77
2023/08/07 02:28:46;;;;;;;14.33;5.00;;;;;;;14.68;100.00;99670.88;5055446;28;20462;-78
2023/08/07 02:31:15;;;;;;;6.20;5.17;;;;;;;14.73;100.00;99672.84;5053120;28;20455;-77
2023/08/07 02:33:44;;;;;;;8.20;5.20;;;;;;;14.83;100.00;99669.38;5054442;28;20440;-77
2023/08/07 02:36:13;;;;;;;6.30;5.60;;;;;;;14.78;100.00;99675.59;5045865;28;20439;-78
2023/08/07 02:38:43;;;;;;;5.80;5.10;;;;;;;14.84;100.00;99680.03;5052673;28;20437;-78
2023/08/07 02:41:12;;;;;;;5.93;4.80;;;;;;;14.86;100.00;99672.44;5049764;28;20467;-78
2023/08/07 02:43:41;;;;;;;5.80;5.30;;;;;;;14.87;100.00;99678.66;5039269;28;20456;-78
2023/08/07 02:46:11;;;;;;;7.13;5.93;;;;;;;14.85;100.00;99678.94;5036879;28;20448;-78
2023/08/07 02:48:40;;;;;;;10.57;6.90;;;;;;;14.87;100.00;99682.22;5040518;28;20486;-78
2023/08/07 02:51:10;;;;;;;12.33;7.10;;;;;;;14.89;100.00;99687.41;5040281;28;20972;-78
2023/08/07 02:53:39;;;;;;;11.70;6.70;;;;;;;14.89;100.00;99680.06;5049776;28;20435;-77
2023/08/07 02:56:08;;;;;;;9.03;6.00;;;;;;;14.86;100.00;99686.03;5053675;28;20423;-79
2023/08/07 02:58:37;;;;;;;8.77;7.00;;;;;;;14.83;100.00;99678.38;5041649;28;20432;-79
2023/08/07 03:01:07;;;;;;;9.03;5.77;;;;;;;14.86;100.00;99682.50;5038148;28;20957;-78
2023/08/07 03:03:37;;;;;;;6.47;5.87;;;;;;;14.85;100.00;99678.94;5036925;28;20527;-77
2023/08/07 03:06:06;;;;;;;14.90;7.57;;;;;;;14.87;100.00;99682.22;5036940;28;20406;-78
2023/08/07 03:08:36;;;;;;;9.43;6.37;;;;;;;14.80;100.00;99678.91;5022560;28;20427;-77
2023/08/07 03:11:05;;;;;;;14.70;7.97;;;;;;;14.91;100.00;99685.25;5028885;28;20460;-78
2023/08/07 03:13:34;;;;;;;9.63;8.63;;;;;;;14.90;100.00;99684.44;5039590;28;21015;-78
2023/08/07 03:16:05;;;;;;;8.67;7.70;;;;;;;14.90;100.00;99681.72;5044084;28;20511;-78
2023/08/07 03:18:36;;;;;;;9.03;6.77;;;;;;;14.86;100.00;99686.03;5035364;28;20471;-78
2023/08/07 03:21:06;;;;;;;6.03;5.50;;;;;;;14.79;100.00;99682.69;5031702;28;20530;-77
2023/08/07 03:23:35;;;;;;;8.53;7.67;;;;;;;14.86;100.00;99682.50;5038846;28;20403;-79
2023/08/07 03:26:08;;;;;;;8.80;6.33;;;;;;;14.85;100.00;99687.13;5028417;28;20449;-78
2023/08/07 03:28:41;;;;;;;7.80;6.37;;;;;;;14.94;100.00;99691.00;5030034;28;20462;-79
2023/08/07 03:31:10;;;;;;;7.73;6.63;;;;;;;14.97;100.00;99695.94;5028284;28;20530;-79
2023/08/07 03:33:41;;;;;;;14.60;6.30;;;;;;;14.95;100.00;99689.94;5030363;28;20822;-76
2023/08/07 03:36:10;;;;;;;7.03;6.20;;;;;;;14.92;100.00;99695.06;5029014;28;20467;-77
2023/08/07 03:38:40;;;;;;;9.47;6.77;;;;;;;14.91;100.00;99696.97;5016294;28;20463;-78
2023/08/07 03:41:09;;;;;;;8.43;6.20;;;;;;;14.96;100.00;99699.72;5023072;28;20508;-78
2023/08/07 03:43:41;;;;;;;10.63;7.60;;;;;;;14.94;100.00;99696.47;5023217;28;20421;-78
2023/08/07 03:46:12;;;;;;;9.10;7.03;;;;;;;14.94;100.00;99691.00;5033536;28;20418;-78
2023/08/07 03:48:42;;;;;;;14.53;7.80;;;;;;;15.01;100.00;99704.38;5030874;28;20468;-80
2023/08/07 03:51:12;;;;;;;9.23;7.93;;;;;;;14.99;100.00;99699.22;5027799;28;20495;-79
2023/08/07 03:53:46;;;;;;;9.40;7.27;;;;;;;15.03;100.00;99700.34;5026454;28;20503;-79
2023/08/07 03:56:15;;;;;;;11.27;8.30;;;;;;;14.96;100.00;99699.72;5034443;28;20978;-78
2023/08/07 03:58:45;;;;;;;11.93;6.90;;;;;;;14.96;100.00;99693.47;5021074;28;20447;-77
2023/08/07 04:01:14;;;;;;;9.27;7.47;;;;;;;14.97;100.00;99690.47;5031832;28;20486;-77
2023/08/07 04:03:47;;;;;;;8.33;7.53;;;;;;;15.08;100.00;99692.22;5036477;28;20444;-77
2023/08/07 04:06:16;;;;;;;10.63;7.57;;;;;;;15.08;100.00;99703.09;5034884;28;20450;-77
2023/08/07 04:08:47;;;;;;;7.00;6.33;;;;;;;15.11;100.00;99702.56;5036734;28;20452;-77
2023/08/07 04:11:17;;;;;;;10.30;7.10;;;;;;;15.19;100.00;99709.47;5049978;28;20444;-77
2023/08/07 04:13:46;;;;;;;8.33;6.63;;;;;;;15.27;100.00;99697.25;5049087;28;20443;-77
2023/08/07 04:16:16;;;;;;;7.93;6.73;;;;;;;15.34;100.00;99700.59;5046625;28;20513;-78
2023/08/07 04:18:47;;;;;;;7.90;6.40;;;;;;;15.51;100.00;99696.63;5036100;28;20433;-78
2023/08/07 04:21:16;;;;;;;7.97;5.93;;;;;;;15.62;100.00;99692.06;5035718;28;20471;-77
2023/08/07 04:23:45;;;;;;;11.80;6.57;;;;;;;15.84;100.00;99694.63;5038201;28;20486;-78
2023/08/07 04:26:15;;;;;;;7.70;6.00;;;;;;;15.87;100.00;99705.03;5036631;28;20529;-78
2023/08/07 04:28:44;;;;;;;7.63;6.73;;;;;;;15.87;100.00;99699.56;5033698;28;20447;-78
2023/08/07 04:31:13;;;;;;;9.00;6.40;;;;;;;15.72;100.00;99692.13;5042811;28;20450;-78
2023/08/07 04:33:43;;;;;;;8.93;6.53;;;;;;;15.92;100.00;99697.69;5032112;28;20415;-78
2023/08/07 04:36:13;;;;;;;6.67;6.07;;;;;;;15.87;100.00;99700.38;5041114;28;20507;-78
2023/08/07 04:38:42;;;;;;;16.73;5.33;;;;;;;15.73;100.00;99696.50;5032691;28;20469;-78
2023/08/07 04:41:11;;;;;;;7.70;6.93;;;;;;;16.01;100.00;99706.16;5038818;28;20483;-78
2023/08/07 04:43:42;;;;;;;10.20;7.47;;;;;;;16.27;100.00;99705.16;5050004;28;20421;-78
2023/08/07 04:46:15;;;;;;;13.47;6.03;;;;;;;16.17;100.00;99705.13;5037022;28;20443;-78
2023/08/07 04:48:45;;;;;;;8.27;6.97;;;;;;;16.10;100.00;99701.84;5048294;28;20440;-78
2023/08/07 04:51:15;;;;;;;9.20;6.43;;;;;;;15.94;100.00;99706.41;5046436;28;20427;-77
2023/08/07 04:53:45;;;;;;;8.13;6.67;;;;;;;15.88;100.00;99712.09;5038422;28;20424;-78
2023/08/07 04:56:14;;;;;;;10.87;6.47;;;;;;;15.91;100.00;99711.59;5060593;28;20411;-78
2023/08/07 04:58:43;;;;;;;7.27;5.80;;;;;;;16.43;100.00;99714.22;5035062;28;20976;-78
2023/08/07 05:01:12;;;;;;;7.00;5.63;;;;;;;17.20;94.79;99716.81;5025824;28;20450;-78
2023/08/07 05:03:41;;;;;;;10.53;5.10;;;;;;;17.09;91.96;99712.44;5037080;28;20447;-79
2023/08/07 05:06:11;;;;;;;8.67;7.20;;;;;;;17.66;92.13;99714.06;5038197;28;20451;-79
2023/08/07 05:08:41;;;;;;;7.10;5.00;;;;;;;17.65;88.93;99724.19;5037876;28;20417;-78
2023/08/07 05:11:11;;;;;;;7.10;4.50;;;;;;;17.60;89.83;99729.66;5039435;28;20427;-78
2023/08/07 05:13:40;;;;;;;8.53;5.20;;;;;;;18.06;86.05;99732.25;5035724;28;20453;-79
2023/08/07 05:16:09;;;;;;;10.20;4.80;;;;;;;18.24;85.20;99734.41;5019637;28;20428;-78
2023/08/07 05:18:38;;;;;;;5.20;4.70;;;;;;;17.71;86.47;99728.56;5025911;28;20986;-78
2023/08/07 05:21:08;;;;;;;7.27;5.03;;;;;;;17.11;89.41;99737.59;5035359;28;20476;-78
2023/08/07 05:23:42;;;;;;;4.93;4.43;;;;;;;16.90;90.28;99734.00;5037486;28;20419;-79
2023/08/07 05:26:11;;;;;;;4.27;3.90;;;;;;;17.19;89.43;99739.78;5023969;28;20488;-79
2023/08/07 05:28:41;;;;;;;6.63;3.70;;;;;;;16.76;91.76;99737.53;5038831;28;20424;-79
2023/08/07 05:31:10;;;;;;;4.37;3.90;;;;;;;16.59;93.60;99735.06;5039287;28;20491;-78
2023/08/07 05:33:39;;;;;;;8.07;5.10;;;;;;;16.26;94.80;99735.47;5039222;28;20971;-77
2023/08/07 05:36:09;;;;;;;8.93;5.40;;;;;;;16.01;96.92;99739.75;5021276;28;20787;-78
2023/08/07 05:38:38;;;;;;;7.63;4.90;;;;;;;15.93;98.28;99736.66;5036273;28;20949;-77
2023/08/07 05:41:09;;;;;;;5.83;4.60;;;;;;;16.04;97.77;99739.19;5042775;28;20438;-78
2023/08/07 05:43:38;;;;;;;5.43;4.03;;;;;;;16.13;98.29;99746.88;5035498;28;20418;-79
2023/08/07 05:46:07;;;;;;;5.03;4.53;;;;;;;16.08;96.75;99744.94;5051847;28;20424;-78
2023/08/07 05:48:37;;;;;;;6.33;4.03;;;;;;;16.26;95.18;99752.69;5045555;28;20418;-78
2023/08/07 05:51:06;;;;;;;5.97;4.00;;;;;;;16.34;94.60;99756.78;5046449;28;20441;-78
2023/08/07 05:53:37;;;;;;;7.30;4.10;;;;;;;16.60;95.26;99757.75;5055297;28;20498;-77
2023/08/07 05:56:07;;;;;;;4.17;3.53;;;;;;;16.53;93.52;99757.94;5051863;28;20437;-77
2023/08/07 05:58:37;;;;;;;5.43;4.63;;;;;;;16.63;93.74;99762.66;5052734;28;20486;-78
2023/08/07 06:01:06;;;;;;;5.80;5.20;;;;;;;16.74;92.24;99758.88;5057146;28;20462;-78
2023/08/07 06:03:35;;;;;;;6.00;3.97;;;;;;;16.83;91.62;99752.59;5055742;28;20435;-78
2023/08/07 06:06:04;;;;;;;9.57;4.83;;;;;;;16.66;91.50;99754.72;5053978;28;20436;-78
2023/08/07 06:08:34;;;;;;;4.67;4.17;;;;;;;16.70;92.53;99755.03;5049678;28;20432;-78
2023/08/07 06:11:05;;;;;;;5.03;4.53;;;;;;;16.94;91.14;99759.69;5058736;28;20434;-78
2023/08/07 06:13:35;;;;;;;5.20;3.70;;;;;;;17.04;89.30;99755.38;5063148;28;20413;-78
2023/08/07 06:16:06;;;;;;;5.40;4.17;;;;;;;17.17;89.73;99763.03;5056032;28;20395;-79
2023/08/07 06:18:35;;;;;;;4.97;4.27;;;;;;;17.21;88.20;99775.03;5049036;28;20478;-79
2023/08/07 06:21:06;;;;;;;4.50;3.70;;;;;;;17.23;88.20;99773.66;5051406;28;20451;-77
2023/08/07 06:23:35;;;;;;;6.33;5.60;;;;;;;17.29;87.74;99774.50;5039509;28;20421;-79
2023/08/07 06:26:04;;;;;;;4.40;4.00;;;;;;;17.39;87.39;99788.16;5041794;28;20403;-78
2023/08/07 06:28:36;;;;;;;5.03;3.47;;;;;;;17.11;87.73;99791.44;5038947;28;20986;-79
2023/08/07 06:31:07;;;;;;;4.17;3.40;;;;;;;17.33;87.42;99787.34;5028287;28;20419;-77
2023/08/07 06:33:37;;;;;;;6.80;3.83;;;;;;;17.21;87.54;99785.97;5033851;28;20475;-79
2023/08/07 06:36:08;;;;;;;3.50;3.20;;;;;;;17.01;86.60;99783.22;5032062;28;20400;-79
2023/08/07 06:38:37;;;;;;;6.20;3.70;;;;;;;17.10;86.38;99795.25;5041623;28;20452;-79
2023/08/07 06:42:02;;;;;;;4.00;3.47;;;;;;;17.01;86.74;99791.41;5025761;28;20991;-77
2023/08/07 06:44:37;;;;;;;4.37;3.87;;;;;;;17.28;86.60;99801.00;5026814;28;20427;-78
2023/08/07 06:47:07;;;;;;;4.70;3.97;;;;;;;17.60;83.68;99789.84;5044336;28;20443;-77
2023/08/07 06:49:38;;;;;;;9.43;3.80;;;;;;;17.36;83.27;99802.41;5033644;28;20372;-79
2023/08/07 06:52:08;;;;;;;3.27;2.70;;;;;;;17.37;83.59;99802.13;5057946;28;20525;-79
2023/08/07 06:54:37;;;;;;;8.07;3.00;;;;;;;17.55;81.83;99802.66;5043991;28;20522;-80
2023/08/07 06:57:06;;;;;;;3.80;3.20;;;;;;;17.34;82.44;99804.56;5039580;28;20432;-79
2023/08/07 06:59:38;;;;;;;4.17;2.97;;;;;;;17.65;82.07;99795.31;5031320;28;20464;-79
2023/08/07 07:02:07;;;;;;;8.03;2.70;;;;;;;17.75;81.21;99800.78;5053317;28;20542;-78
2023/08/07 07:04:37;;;;;;;6.33;3.10;;;;;;;17.85;80.26;99810.06;5021004;28;20407;-79
2023/08/07 07:07:06;;;;;;;8.70;3.27;;;;;;;18.01;79.51;99817.16;5023073;28;20460;-78
2023/08/07 07:09:35;;;;;;;3.20;2.60;;;;;;;18.13;77.74;99813.00;5026227;28;20412;-78
2023/08/07 07:12:05;;;;;;;6.03;3.30;;;;;;;18.24;76.97;99816.56;5046913;28;20517;-78
2023/08/07 07:14:35;;;;;;;5.70;3.00;;;;;;;18.25;77.15;99820.91;5041275;28;20414;-77
2023/08/07 07:17:05;;;;;;;4.73;2.53;;;;;;;18.30;75.18;99818.16;5043336;28;20428;-79
2023/08/07 07:19:35;;;;;;;4.33;3.17;;;;;;;18.40;75.26;99823.59;5043735;28;20426;-79
2023/08/07 07:22:04;;;;;;;3.80;2.77;;;;;;;18.35;74.83;99817.34;5038489;28;20522;-79
2023/08/07 07:32:11;;;;;;;3.47;2.50;;;;;;;18.31;73.93;99838.97;4991994;28;20426;-79
2023/08/07 07:34:40;;;;;;;9.23;2.70;;;;;;;18.53;73.45;99825.78;5040041;28;20460;-79
2023/08/07 07:37:09;;;;;;;5.60;3.13;;;;;;;18.85;73.04;99832.75;5031954;28;20507;-79
2023/08/07 07:39:39;;;;;;;3.40;2.80;;;;;;;18.89;72.68;99844.78;5039708;28;20891;-79
2023/08/07 07:42:09;;;;;;;4.13;2.33;;;;;;;18.54;73.66;99838.38;5042204;28;20462;-78
2023/08/07 07:44:39;;;;;;;8.07;2.50;;;;;;;18.63;72.44;99835.88;5047997;28;20399;-78
2023/08/07 07:47:11;;;;;;;5.83;2.87;;;;;;;18.52;72.62;99834.25;5040398;28;20523;-76
2023/08/07 07:49:48;;;;;;;3.80;2.17;;;;;;;18.82;71.68;99838.81;5052941;28;20415;-76
2023/08/07 07:52:18;;;;;;;5.87;2.87;;;;;;;18.79;71.46;99844.84;5050343;28;20468;-77
2023/08/07 07:54:47;;;;;;;3.03;2.03;;;;;;;18.64;71.22;99845.72;5044364;28;20421;-79
2023/08/07 07:57:17;;;;;;;3.67;2.53;;;;;;;18.74;71.16;99853.09;5040425;28;20446;-79
2023/08/07 07:59:48;;;;;;;4.10;2.40;;;;;;;18.62;71.22;99856.16;5038620;28;20852;-78
2023/08/07 08:02:20;;;;;;;3.50;2.63;;;;;;;18.39;72.26;99849.38;5037747;28;20446;-78
2023/08/07 08:04:50;;;;;;;5.57;2.60;;;;;;;18.51;71.84;99865.47;5035569;28;20435;-79
2023/08/07 08:07:19;;;;;;;6.33;2.73;;;;;;;18.75;71.83;99849.25;5040142;28;20414;-79
2023/08/07 08:09:49;;;;;;;2.33;1.90;;;;;;;18.63;71.74;99857.81;5035768;28;20827;-79
2023/08/07 08:12:18;;;;;;;3.40;2.57;;;;;;;18.81;72.14;99856.34;5034480;28;20460;-77
2023/08/07 08:14:47;;;;;;;6.37;1.90;;;;;;;18.97;71.63;99864.22;5041058;28;20402;-79
2023/08/07 08:17:27;;;;;;;2.83;1.97;;;;;;;18.67;71.78;99864.38;5037985;28;20468;-79
2023/08/07 08:19:56;;;;;;;3.10;2.07;;;;;;;18.79;72.69;99858.53;5022686;28;20467;-79
2023/08/07 08:22:44;;;;;;;2.83;2.53;;;;;;;18.83;72.54;99868.66;5021081;28;20400;-78
2023/08/07 08:25:13;;;;;;;7.30;3.60;;;;;;;18.94;72.78;99873.00;5041978;28;20423;-78
2023/08/07 08:27:42;;;;;;;8.20;3.43;;;;;;;18.63;72.78;99869.59;5045566;28;20432;-78
2023/08/07 08:30:12;;;;;;;3.30;2.40;;;;;;;18.60;73.28;99872.88;5045762;28;20399;-79
2023/08/07 08:32:43;;;;;;;3.40;3.10;;;;;;;18.60;74.36;99881.09;5025058;28;20415;-79
2023/08/07 08:35:13;;;;;;;7.87;3.80;;;;;;;18.49;74.68;99876.69;5041985;28;20395;-79
2023/08/07 08:37:42;;;;;;;6.33;3.93;;;;;;;18.69;74.85;99881.31;5052107;28;20398;-77
2023/08/07 08:40:16;;;;;;;6.87;3.00;;;;;;;19.12;73.76;99877.03;5056208;28;20505;-79
2023/08/07 08:42:47;;;;;;;6.00;3.57;;;;;;;19.19;71.43;99883.00;5044471;28;20436;-78
2023/08/07 08:45:17;;;;;;;4.20;3.10;;;;;;;18.97;71.79;99874.38;5044445;28;20435;-77
2023/08/07 08:47:51;;;;;;;8.23;3.40;;;;;;;19.48;70.79;99881.22;5048333;28;20477;-79
2023/08/07 08:50:23;;;;;;;6.60;3.50;;;;;;;19.52;70.59;99876.78;5034300;28;20514;-79
2023/08/07 08:52:54;;;;;;;4.53;2.20;;;;;;;19.58;69.97;99869.34;5029360;28;20480;-79
2023/08/07 08:55:23;;;;;;;4.03;3.20;;;;;;;19.66;67.94;99876.13;5026307;28;20399;-79
2023/08/07 08:58:00;;;;;;;3.50;2.57;;;;;;;19.91;66.57;99878.69;5036564;28;20407;-79
2023/08/07 09:00:31;;;;;;;2.97;2.53;;;;;;;19.83;67.17;99877.38;5040567;28;20494;-79
2023/08/07 09:03:03;;;;;;;4.80;2.53;;;;;;;20.07;66.69;99871.94;5025974;28;20437;-79
2023/08/07 09:05:33;;;;;;;6.13;4.20;;;;;;;19.89;66.84;99876.25;5041125;28;20456;-79
2023/08/07 09:08:03;;;;;;;4.47;3.40;;;;;;;19.67;67.10;99877.78;5046331;28;20451;-78
2023/08/07 09:10:34;;;;;;;5.43;3.07;;;;;;;19.75;67.20;99879.94;5042247;28;20453;-79
2023/08/07 09:13:05;;;;;;;10.10;3.10;;;;;;;20.00;64.60;99878.88;5048434;28;20552;-78
2023/08/07 09:15:36;;;;;;;2.50;2.30;;;;;;;20.17;64.26;99871.03;5039508;28;20433;-78
2023/08/07 09:18:10;;;;;;;6.10;2.47;;;;;;;20.41;63.85;99876.56;5034158;28;20478;-79
2023/08/07 09:20:40;;;;;;;5.77;2.27;;;;;;;20.41;62.89;99887.56;5048202;28;20479;-79
2023/08/07 09:23:09;;;;;;;4.90;3.00;;;;;;;20.52;64.12;99881.69;5051372;28;20515;-78
2023/08/07 09:25:38;;;;;;;3.73;2.40;;;;;;;19.97;65.15;99888.50;5041876;28;20482;-79
2023/08/07 09:28:09;;;;;;;5.27;3.03;;;;;;;20.38;64.29;99883.50;5049993;28;20453;-78
2023/08/07 09:30:42;;;;;;;5.63;2.37;;;;;;;20.27;65.37;99877.25;5055701;28;20524;-78
2023/08/07 09:33:12;;;;;;;9.80;3.17;;;;;;;20.05;65.30;99879.66;5048108;28;20814;-79
2023/08/07 09:35:41;;;;;;;3.37;2.47;;;;;;;20.31;65.22;99883.81;5054298;28;20419;-79
2023/08/07 09:38:11;;;;;;;3.90;3.00;;;;;;;20.14;64.34;99894.38;5052437;28;20978;-79
2023/08/07 09:45:41;;;;;;;2.43;1.60;;;;;;;20.17;63.58;99896.56;4981541;28;20570;-78
2023/08/07 09:48:12;;;;;;;3.47;2.10;;;;;;;20.07;64.44;99893.09;4973596;28;20447;-79
2023/08/07 09:50:41;;;;;;;2.80;2.47;;;;;;;19.83;64.52;99899.34;4995749;28;20470;-78
2023/08/07 09:53:10;;;;;;;5.70;2.50;;;;;;;19.92;64.88;99891.31;5000131;28;20439;-78
2023/08/07 09:55:40;;;;;;;6.30;2.73;;;;;;;19.84;65.67;99891.94;4997300;28;20462;-78
2023/08/07 09:58:13;;;;;;;4.53;2.50;;;;;;;20.11;65.94;99894.97;5000622;28;20431;-79
2023/08/07 10:00:43;;;;;;;6.03;3.00;;;;;;;20.24;65.84;99883.31;4981718;28;20520;-78
2023/08/07 10:03:14;;;;;;;4.83;2.20;;;;;;;20.06;65.33;99902.44;4989789;28;20422;-79
2023/08/07 10:05:44;;;;;;;4.87;2.23;;;;;;;19.68;66.72;99906.88;4988330;28;20453;-79
2023/08/07 10:08:13;;;;;;;4.70;2.60;;;;;;;19.49;67.28;99902.06;4967854;28;20442;-79
2023/08/07 10:10:44;;;;;;;4.07;2.33;;;;;;;20.12;65.17;99904.84;4961899;28;20547;-79
2023/08/07 10:13:15;;;;;;;4.17;2.10;;;;;;;20.17;64.40;99910.31;4982257;28;20583;-79
2023/08/07 10:15:48;;;;;;;7.37;2.37;;;;;;;20.19;63.20;99907.25;4995895;28;20510;-79
2023/08/07 10:18:21;;;;;;;6.27;2.17;;;;;;;20.04;63.18;99905.50;5028591;28;20501;-79
2023/08/07 10:20:51;;;;;;;2.97;2.03;;;;;;;20.37;62.24;99904.66;5017879;28;20472;-79
2023/08/07 10:23:22;;;;;;;6.67;3.00;;;;;;;20.78;61.59;99909.66;5029220;28;20428;-79
2023/08/07 10:25:52;;;;;;;3.20;2.43;;;;;;;20.51;61.48;99898.44;5031778;28;20791;-80
2023/08/07 10:28:25;;;;;;;3.47;2.37;;;;;;;20.48;60.90;99899.03;5037337;28;20792;-79
2023/08/07 10:30:59;;;;;;;4.33;2.60;;;;;;;20.73;60.35;99895.97;5042958;28;20460;-78
2023/08/07 10:33:30;;;;;;;2.63;1.77;;;;;;;20.44;59.69;99900.72;5038861;28;20466;-78
2023/08/07 10:36:00;;;;;;;4.47;1.60;;;;;;;20.45;59.96;99900.44;5033489;28;20410;-78
2023/08/07 10:38:32;;;;;;;8.80;3.10;;;;;;;20.69;59.45;99898.50;5036837;28;20433;-78
2023/08/07 10:41:03;;;;;;;3.30;1.87;;;;;;;21.19;58.95;99902.59;5041276;28;20475;-78
2023/08/07 10:43:37;;;;;;;4.70;2.20;;;;;;;20.66;57.31;99888.13;5044963;28;20530;-79
2023/08/07 10:46:07;;;;;;;5.80;2.40;;;;;;;21.00;57.42;99884.38;5029071;28;20402;-79
2023/08/07 10:48:46;;;;;;;6.73;2.30;;;;;;;20.68;57.58;99882.31;5030024;28;20471;-79
2023/08/07 10:51:16;;;;;;;4.00;2.17;;;;;;;20.74;57.99;99883.88;5029735;28;20467;-78
2023/08/07 10:53:48;;;;;;;2.60;1.77;;;;;;;20.34;60.02;99887.91;5037072;28;20407;-78
2023/08/07 10:56:19;;;;;;;6.00;2.60;;;;;;;19.92;63.47;99897.63;5038116;28;20933;-78
2023/08/07 10:58:51;;;;;;;7.80;2.23;;;;;;;19.63;65.30;99912.41;5033846;28;20794;-78
2023/08/07 11:01:36;;;;;;;6.80;1.80;;;;;;;19.44;64.17;99904.84;5039071;28;20491;-78
2023/08/07 11:04:10;;;;;;;3.30;1.87;;;;;;;19.70;64.18;99916.47;5033214;28;20502;-78
2023/08/07 11:06:41;;;;;;;3.27;2.40;;;;;;;19.94;63.25;99933.81;5034963;28;20450;-78
2023/08/07 11:09:11;;;;;;;2.93;2.20;;;;;;;19.30;65.97;99939.47;5031159;28;20484;-79
2023/08/07 11:11:41;;;;;;;5.00;1.97;;;;;;;19.14;68.36;99946.13;5039969;28;20448;-78
2023/08/07 11:14:12;;;;;;;2.70;1.93;;;;;;;18.52;74.26;99947.41;5054350;28;20904;-78
2023/08/07 11:16:42;;;;;;;3.67;1.93;;;;;;;18.28;78.00;99938.13;5056205;28;20426;-77
2023/08/07 11:19:14;;;;;;;4.27;2.00;;;;;;;18.50;78.82;99930.41;5054588;28;20500;-78
2023/08/07 11:21:44;;;;;;;2.40;1.90;;;;;;;18.66;77.60;99934.78;5046093;28;20474;-78
2023/08/07 11:24:15;;;;;;;2.43;2.17;;;;;;;19.04;76.77;99940.69;5035279;28;20450;-78
2023/08/07 11:26:44;;;;;;;3.30;2.50;;;;;;;19.02;77.29;99935.50;5019829;28;20419;-78
2023/08/07 11:29:18;;;;;;;3.23;2.43;;;;;;;18.98;76.38;99941.78;5039743;28;20406;-78
2023/08/07 11:31:48;;;;;;;5.63;2.60;;;;;;;18.88;76.90;99941.84;5032127;28;20456;-79
2023/08/07 11:34:19;;;;;;;3.90;2.50;;;;;;;19.13;77.75;99943.66;5036621;28;20467;-79
2023/08/07 11:36:51;;;;;;;3.17;2.43;;;;;;;19.28;74.91;99938.91;5032470;28;20435;-79
2023/08/07 11:39:22;;;;;;;5.87;3.17;;;;;;;19.38;74.54;99944.34;5037811;28;20459;-78
2023/08/07 11:41:52;;;;;;;3.13;2.47;;;;;;;19.38;74.08;99958.06;5037245;28;20475;-79
2023/08/07 11:44:23;;;;;;;3.40;2.40;;;;;;;19.31;72.64;99948.50;5039073;28;20439;-79
2023/08/07 11:46:53;;;;;;;3.93;2.83;;;;;;;19.51;72.53;99942.91;5036979;28;20410;-80
2023/08/07 11:49:49;;;;;;;2.20;2.00;;;;;;;20.25;71.06;99933.56;5032770;28;20428;-79
2023/08/07 11:52:19;;;;;;;5.13;2.37;;;;;;;20.01;70.07;99935.44;5023371;28;20550;-79
2023/08/07 11:54:50;;;;;;;7.03;3.40;;;;;;;20.17;70.29;99932.28;5037784;28;20450;-78
2023/08/07 11:57:20;;;;;;;4.63;2.37;;;;;;;20.22;68.85;99932.22;5033275;28;20622;-79
2023/08/07 11:59:51;;;;;;;4.20;2.17;;;;;;;20.25;69.44;99923.41;5032139;28;20463;-79
2023/08/07 12:02:25;;;;;;;3.00;2.10;;;;;;;20.35;69.44;99917.84;5030933;28;20487;-79
2023/08/07 12:05:00;;;;;;;5.80;2.83;;;;;;;20.67;67.26;99924.66;5026850;28;20446;-78